Time;durP1;ratioP1;P1;durP2;ratioP2;P2;SDS_P1;SDS_P2;PMS_P1;PMS_P2;Temp;Humidity;BMP_temperature;BMP_pressure;BME280_temperature;BME280_humidity;BME280_pressure;Samples;Min_cycle;Max_cycle;Signal;HPM_P1;HPM_P2
2023/04/28 00:01:15;;;;;;;15.57;12.13;;;;;;;13.89;68.78;150778.56;5110782;28;20099;-63
2023/04/28 00:03:41;;;;;;;19.80;13.45;;;;;;;13.91;68.57;150783.72;5109481;28;20216;-64
2023/04/28 00:06:06;;;;;;;19.60;12.25;;;;;;;13.99;69.16;150803.00;5120616;28;20087;-64
2023/04/28 00:08:32;;;;;;;16.65;11.48;;;;;;;14.03;69.84;150813.28;5102427;28;20077;-64
2023/04/28 00:10:58;;;;;;;16.95;12.15;;;;;;;14.00;69.58;150805.59;5120012;28;20027;-64
2023/04/28 00:13:24;;;;;;;16.80;12.48;;;;;;;13.95;69.62;150794.03;5122723;28;20213;-65
2023/04/28 00:15:51;;;;;;;15.77;12.32;;;;;;;13.97;69.18;150799.16;5116941;28;20092;-65
2023/04/28 00:18:18;;;;;;;20.77;13.32;;;;;;;13.90;68.14;150781.16;5101011;28;20036;-64
2023/04/28 00:20:43;;;;;;;18.25;13.90;;;;;;;13.89;69.81;150777.28;5101894;28;20309;-65
2023/04/28 00:23:09;;;;;;;21.25;14.23;;;;;;;13.88;68.71;150774.72;5121024;28;20035;-64
2023/04/28 00:25:34;;;;;;;16.98;13.07;;;;;;;13.92;69.77;150785.00;5108457;28;20024;-66
2023/04/28 00:28:00;;;;;;;19.52;13.65;;;;;;;13.90;68.78;150779.88;5112032;28;20035;-64
2023/04/28 00:30:26;;;;;;;20.08;14.30;;;;;;;13.83;69.87;150761.88;5126907;28;20031;-64
2023/04/28 00:32:52;;;;;;;15.75;11.98;;;;;;;13.97;69.01;150799.16;5123047;28;20054;-64
2023/04/28 00:35:18;;;;;;;22.30;13.70;;;;;;;13.93;69.49;150788.84;5106868;28;20082;-64
2023/04/28 00:37:43;;;;;;;19.13;13.73;;;;;;;13.96;68.81;150796.56;5111129;28;20028;-64
2023/04/28 00:40:09;;;;;;;18.63;13.52;;;;;;;13.93;69.09;150788.84;5105806;28;20050;-64
2023/04/28 00:42:35;;;;;;;16.88;13.13;;;;;;;13.92;69.63;150785.00;5111606;28;20028;-64
2023/04/28 00:45:04;;;;;;;17.75;13.82;;;;;;;13.90;69.49;150779.88;5126293;28;20086;-64
2023/04/28 00:47:32;;;;;;;22.40;13.82;;;;;;;13.80;70.13;150756.72;5126064;28;20090;-63
2023/04/28 00:50:00;;;;;;;20.02;13.13;;;;;;;13.63;70.22;150714.28;5126119;28;20082;-64
2023/04/28 00:52:26;;;;;;;16.23;13.55;;;;;;;13.72;70.07;150734.88;5125907;28;20049;-64
2023/04/28 00:54:53;;;;;;;16.67;13.77;;;;;;;13.69;70.43;150728.44;5118092;28;20039;-64
2023/04/28 00:57:18;;;;;;;20.25;14.48;;;;;;;13.69;71.26;150727.16;5105587;28;20043;-64
2023/04/28 00:59:44;;;;;;;15.30;13.25;;;;;;;13.73;70.54;150738.72;5106034;28;20099;-65
2023/04/28 01:02:16;;;;;;;18.55;13.32;;;;;;;13.72;70.45;150736.13;5124410;28;20077;-64
2023/04/28 01:04:43;;;;;;;16.63;13.82;;;;;;;13.64;70.10;150716.88;5111175;28;20012;-64
2023/04/28 01:07:09;;;;;;;20.67;13.68;;;;;;;13.44;70.99;150666.75;5115621;28;20265;-65
2023/04/28 01:09:34;;;;;;;19.45;13.48;;;;;;;13.54;71.01;150691.19;5120552;28;20042;-65
2023/04/28 01:12:00;;;;;;;17.67;13.73;;;;;;;13.55;70.51;150693.75;5106037;28;20073;-65
2023/04/28 01:14:26;;;;;;;15.90;13.25;;;;;;;13.61;70.52;150709.16;5126018;27;20076;-65
2023/04/28 01:16:52;;;;;;;16.38;13.80;;;;;;;13.57;70.24;150698.88;5125895;28;20024;-64
2023/04/28 01:19:21;;;;;;;19.58;12.95;;;;;;;13.58;70.84;150700.16;5113866;28;20039;-64
2023/04/28 01:21:47;;;;;;;16.40;13.95;;;;;;;13.53;70.47;150687.31;5112199;28;20361;-64
2023/04/28 01:24:13;;;;;;;17.48;13.75;;;;;;;13.50;70.83;150680.91;5123223;28;20049;-64
2023/04/28 01:26:39;;;;;;;20.13;13.07;;;;;;;13.49;70.95;150677.03;5105187;28;20384;-65
2023/04/28 01:29:04;;;;;;;17.50;12.65;;;;;;;13.54;71.47;150691.19;5122756;28;20023;-63
2023/04/28 01:31:30;;;;;;;20.63;13.90;;;;;;;13.46;70.59;150671.88;5117068;28;20028;-64
2023/04/28 01:33:56;;;;;;;14.40;12.52;;;;;;;13.46;71.50;150671.88;5112648;28;20028;-63
2023/04/28 01:36:22;;;;;;;18.20;13.95;;;;;;;13.33;71.55;150637.16;5104900;28;20050;-64
2023/04/28 01:38:49;;;;;;;17.35;13.38;;;;;;;13.30;71.22;150630.72;5104617;28;20024;-63
2023/04/28 01:41:15;;;;;;;16.77;13.73;;;;;;;13.08;72.00;150576.75;5123712;28;20083;-64
2023/04/28 01:43:42;;;;;;;19.20;13.82;;;;;;;12.97;72.59;150547.19;5110790;28;20320;-64
2023/04/28 01:46:08;;;;;;;21.20;14.25;;;;;;;12.92;73.07;150536.91;5119540;28;20083;-64
2023/04/28 01:48:34;;;;;;;16.15;14.00;;;;;;;12.91;72.70;150533.06;5120161;28;20032;-65
2023/04/28 01:51:00;;;;;;;18.45;13.15;;;;;;;12.85;72.80;150518.91;5104718;28;20047;-63
2023/04/28 01:53:26;;;;;;;22.45;14.15;;;;;;;13.04;72.80;150565.16;5124998;28;20136;-64
2023/04/28 01:55:52;;;;;;;17.67;13.27;;;;;;;13.20;72.30;150606.31;5124821;28;20043;-65
2023/04/28 01:58:18;;;;;;;17.63;13.00;;;;;;;13.25;73.06;150619.19;5113848;28;20043;-64
2023/04/28 02:00:44;;;;;;;15.52;13.07;;;;;;;13.35;72.62;150642.34;5104399;28;20136;-64
2023/04/28 02:03:10;;;;;;;17.45;12.38;;;;;;;13.34;71.06;150639.69;5124340;28;20043;-64
2023/04/28 02:05:36;;;;;;;16.80;12.55;;;;;;;13.27;70.78;150623.03;5124837;28;20098;-65
2023/04/28 02:08:01;;;;;;;17.60;11.93;;;;;;;12.96;72.39;150545.91;5107497;28;20035;-64
2023/04/28 02:10:27;;;;;;;17.35;12.50;;;;;;;12.98;73.20;150551.03;5104265;28;20024;-64
2023/04/28 02:12:53;;;;;;;14.85;12.98;;;;;;;12.96;72.43;150545.91;5119549;28;20028;-65
2023/04/28 02:15:18;;;;;;;15.13;12.65;;;;;;;12.91;73.70;150533.06;5120728;28;20039;-64
2023/04/28 02:17:44;;;;;;;16.33;12.65;;;;;;;12.90;72.82;150530.50;5103146;28;20051;-65
2023/04/28 02:20:10;;;;;;;15.50;12.80;;;;;;;12.89;72.78;150529.19;5121507;28;20274;-66
2023/04/28 02:22:36;;;;;;;16.85;12.00;;;;;;;13.09;72.25;150578.03;5110967;28;20027;-66
2023/04/28 02:25:02;;;;;;;17.42;12.48;;;;;;;13.09;73.21;150578.03;5112297;28;20099;-63
2023/04/28 02:27:29;;;;;;;16.15;12.57;;;;;;;13.27;71.79;150623.03;5122747;28;20016;-63
2023/04/28 02:29:54;;;;;;;17.73;12.70;;;;;;;13.27;72.12;150624.28;5124194;28;20038;-63
2023/04/28 02:32:20;;;;;;;18.92;12.48;;;;;;;13.26;71.73;150621.72;5115764;28;20121;-64
2023/04/28 02:34:46;;;;;;;14.50;12.15;;;;;;;13.35;71.60;150642.34;5123664;28;20287;-64
2023/04/28 02:37:11;;;;;;;15.30;13.10;;;;;;;13.22;72.26;150611.41;5123325;28;20491;-64
2023/04/28 02:39:37;;;;;;;16.10;13.07;;;;;;;13.23;72.58;150614.00;5119074;28;20028;-65
2023/04/28 02:42:04;;;;;;;18.50;14.07;;;;;;;12.97;72.91;150548.50;5103478;28;20024;-65
2023/04/28 02:44:29;;;;;;;19.08;14.32;;;;;;;13.10;73.01;150580.63;5086652;28;20069;-64
2023/04/28 02:46:55;;;;;;;20.90;14.25;;;;;;;13.00;73.03;150554.88;5123953;28;20027;-63
2023/04/28 02:49:21;;;;;;;20.75;13.70;;;;;;;13.12;72.80;150585.72;5112574;28;20039;-65
2023/04/28 02:51:46;;;;;;;21.02;13.32;;;;;;;13.29;72.97;150629.41;5108760;28;20385;-64
2023/04/28 02:54:12;;;;;;;17.67;13.68;;;;;;;13.22;72.45;150610.16;5104271;28;20031;-65
2023/04/28 02:56:39;;;;;;;20.88;13.57;;;;;;;13.34;72.66;150641.00;5103690;28;20135;-63
2023/04/28 02:59:06;;;;;;;19.25;12.43;;;;;;;13.52;71.62;150686.00;5102092;28;20031;-64
2023/04/28 03:01:32;;;;;;;15.32;12.68;;;;;;;13.62;71.48;150710.44;5123633;28;20104;-63
2023/04/28 03:03:57;;;;;;;24.77;14.23;;;;;;;13.56;72.25;150695.03;5116071;28;20048;-64
2023/04/28 03:06:23;;;;;;;18.10;13.23;;;;;;;13.41;72.95;150657.72;5103014;28;20024;-64
2023/04/28 03:08:48;;;;;;;20.90;14.25;;;;;;;13.29;73.00;150629.41;5103181;28;20024;-64
2023/04/28 03:11:14;;;;;;;18.50;12.75;;;;;;;13.60;72.24;150705.31;5121066;28;20027;-64
2023/04/28 03:13:40;;;;;;;16.45;12.30;;;;;;;13.72;71.15;150734.88;5115381;28;20028;-65
2023/04/28 03:16:06;;;;;;;16.23;13.65;;;;;;;13.66;71.11;150719.47;5123250;28;20396;-64
2023/04/28 03:18:32;;;;;;;15.00;11.68;;;;;;;13.81;70.71;150758.03;5119426;28;20035;-64
2023/04/28 03:20:58;;;;;;;16.52;12.73;;;;;;;13.76;71.07;150745.16;5102812;28;20190;-64
2023/04/28 03:23:23;;;;;;;18.17;12.18;;;;;;;13.73;71.55;150737.44;5122267;28;20073;-65
2023/04/28 03:25:49;;;;;;;20.60;13.38;;;;;;;13.74;71.28;150741.31;5090603;28;20027;-64
2023/04/28 03:28:15;;;;;;;16.75;12.48;;;;;;;13.78;71.42;150750.28;5112442;28;20031;-64
2023/04/28 03:30:40;;;;;;;21.08;13.48;;;;;;;13.70;71.24;150729.75;5118195;28;20028;-64
2023/04/28 03:33:06;;;;;;;19.60;13.20;;;;;;;13.58;72.13;150700.16;5096801;28;20020;-64
2023/04/28 03:35:31;;;;;;;19.38;13.25;;;;;;;13.51;71.79;150683.47;5102630;28;20141;-64
2023/04/28 03:37:57;;;;;;;17.80;12.57;;;;;;;13.48;72.96;150674.47;5118307;28;20019;-64
2023/04/28 03:40:23;;;;;;;17.67;12.75;;;;;;;13.59;72.16;150704.00;5112157;28;20297;-64
2023/04/28 03:42:48;;;;;;;15.02;12.32;;;;;;;13.74;71.35;150741.31;5108492;28;20039;-64
2023/04/28 03:45:14;;;;;;;19.25;12.77;;;;;;;13.83;71.79;150763.16;5122567;28;20027;-65
2023/04/28 03:47:40;;;;;;;15.23;12.55;;;;;;;13.82;72.18;150760.56;5122793;28;20027;-64
2023/04/28 03:50:06;;;;;;;15.32;11.88;;;;;;;13.88;71.19;150776.03;5122348;28;20246;-64
2023/04/28 03:52:32;;;;;;;13.40;12.00;;;;;;;13.90;70.96;150781.16;5111001;28;20210;-64
2023/04/28 03:54:57;;;;;;;16.75;12.52;;;;;;;13.71;71.89;150732.28;5102123;28;20040;-65
2023/04/28 03:57:23;;;;;;;14.63;12.73;;;;;;;13.80;71.32;150755.44;5104379;28;20028;-64
2023/04/28 03:59:48;;;;;;;17.80;12.80;;;;;;;13.92;70.63;150785.00;5122736;28;20304;-64
2023/04/28 04:02:14;;;;;;;17.15;12.77;;;;;;;14.13;70.70;150837.72;5105501;28;20031;-65
2023/04/28 04:04:39;;;;;;;15.73;11.93;;;;;;;14.17;70.18;150848.03;5119536;28;20106;-65
2023/04/28 04:07:05;;;;;;;19.45;11.63;;;;;;;14.19;69.98;150853.16;5100577;28;20178;-65
2023/04/28 04:09:31;;;;;;;14.75;12.15;;;;;;;14.18;70.17;150849.28;5109573;28;20028;-64
2023/04/28 04:11:57;;;;;;;15.55;12.85;;;;;;;14.03;70.99;150812.03;5127014;28;20320;-64
2023/04/28 04:14:23;;;;;;;14.73;12.07;;;;;;;14.25;69.84;150867.28;5126769;28;20042;-64
2023/04/28 04:16:48;;;;;;;17.35;13.23;;;;;;;14.30;70.58;150881.44;5111670;28;20028;-65
2023/04/28 04:19:14;;;;;;;16.90;12.70;;;;;;;14.32;69.59;150885.28;5115486;28;20034;-65
2023/04/28 04:21:40;;;;;;;16.08;11.82;;;;;;;14.54;69.20;150940.63;5122376;28;20035;-65
2023/04/28 04:24:06;;;;;;;19.60;12.43;;;;;;;14.46;69.98;150920.03;5106280;28;20034;-65
2023/04/28 04:26:31;;;;;;;18.30;12.45;;;;;;;14.11;70.72;150833.88;5126176;28;20059;-67
2023/04/28 04:28:57;;;;;;;15.10;12.02;;;;;;;14.27;70.48;150872.47;5111383;28;20055;-65
2023/04/28 04:31:23;;;;;;;19.98;12.77;;;;;;;14.28;70.54;150876.31;5115905;28;20079;-65
2023/04/28 04:33:48;;;;;;;17.17;11.70;;;;;;;14.47;69.77;150922.63;5104772;28;20027;-64
2023/04/28 04:36:14;;;;;;;16.00;11.57;;;;;;;14.50;69.43;150930.31;5114549;28;20028;-64
2023/04/28 04:38:40;;;;;;;15.63;11.48;;;;;;;14.45;69.66;150917.44;5125570;28;20059;-65
2023/04/28 04:41:05;;;;;;;17.75;11.18;;;;;;;14.47;69.55;150923.88;5123260;28;20347;-65
2023/04/28 04:43:31;;;;;;;18.67;11.57;;;;;;;14.56;69.68;150944.47;5106088;28;20031;-64
2023/04/28 04:45:57;;;;;;;19.23;12.40;;;;;;;14.49;70.39;150929.06;5125214;28;20383;-65
2023/04/28 04:48:22;;;;;;;17.40;11.55;;;;;;;14.61;70.06;150957.34;5123634;28;20057;-65
2023/04/28 04:50:48;;;;;;;19.33;11.07;;;;;;;14.61;69.72;150957.34;5104667;28;20031;-65
2023/04/28 04:53:14;;;;;;;17.10;11.80;;;;;;;14.59;70.42;150953.50;5121663;28;20023;-65
2023/04/28 04:55:40;;;;;;;14.60;11.35;;;;;;;14.59;70.64;150953.50;5094065;28;20231;-64
2023/04/28 04:58:05;;;;;;;16.52;11.45;;;;;;;14.66;70.30;150970.25;5112847;28;20077;-65
2023/04/28 05:00:31;;;;;;;15.63;11.20;;;;;;;14.61;70.58;150957.34;5122735;28;20133;-64
2023/04/28 05:02:56;;;;;;;16.95;11.02;;;;;;;14.78;70.48;150999.84;5105185;28;20343;-65
2023/04/28 05:05:22;;;;;;;15.85;10.88;;;;;;;14.75;70.98;150992.09;5123437;28;20092;-64
2023/04/28 05:07:48;;;;;;;18.33;11.43;;;;;;;14.86;70.33;151020.41;5112172;28;20034;-64
2023/04/28 05:10:13;;;;;;;14.65;10.73;;;;;;;15.04;69.96;151064.19;5095125;28;20031;-65
2023/04/28 05:12:39;;;;;;;15.65;10.02;;;;;;;15.01;70.03;151059.00;5125558;28;20324;-65
2023/04/28 05:15:06;;;;;;;18.50;10.55;;;;;;;14.79;69.46;151003.72;5124682;28;20031;-66
2023/04/28 05:17:32;;;;;;;21.83;11.05;;;;;;;14.82;69.58;151011.44;5125532;28;20130;-67
2023/04/28 05:19:58;;;;;;;11.63;10.10;;;;;;;14.80;69.77;151006.25;5110742;28;20047;-65
2023/04/28 05:22:25;;;;;;;13.43;10.63;;;;;;;14.94;69.49;151039.72;5114870;28;20023;-64
2023/04/28 05:24:50;;;;;;;12.60;10.32;;;;;;;14.83;70.07;151013.97;5120150;28;20024;-65
2023/04/28 05:27:17;;;;;;;16.48;11.20;;;;;;;14.93;69.84;151038.41;5104851;28;20035;-66
2023/04/28 05:29:42;;;;;;;14.40;10.40;;;;;;;15.05;70.47;151066.72;5107231;28;20229;-65
2023/04/28 05:32:08;;;;;;;16.90;11.05;;;;;;;15.00;70.01;151056.44;5118797;28;20045;-66
2023/04/28 05:34:33;;;;;;;13.93;11.52;;;;;;;15.10;70.10;151079.63;5125216;28;20047;-65
2023/04/28 05:36:59;;;;;;;15.02;11.18;;;;;;;15.07;69.26;151073.16;5124651;28;20047;-63
2023/04/28 05:39:25;;;;;;;18.38;11.25;;;;;;;15.08;69.05;151075.75;5123348;28;20028;-64
2023/04/28 05:41:51;;;;;;;14.55;10.57;;;;;;;15.14;69.98;151089.91;5104582;28;20028;-64
2023/04/28 05:44:16;;;;;;;11.88;10.75;;;;;;;15.17;69.89;151098.91;5103558;28;20023;-64
2023/04/28 05:46:42;;;;;;;19.52;11.02;;;;;;;15.15;70.08;151093.75;5124750;28;20216;-64
2023/04/28 05:49:09;;;;;;;13.32;10.43;;;;;;;15.04;69.94;151064.19;5103330;28;20024;-63
2023/04/28 05:51:35;;;;;;;14.25;10.40;;;;;;;15.23;69.35;151113.06;5086499;28;20055;-64
2023/04/28 05:54:01;;;;;;;14.98;11.13;;;;;;;15.38;70.02;151150.41;5086431;28;20043;-64
2023/04/28 05:56:26;;;;;;;16.75;10.15;;;;;;;15.59;69.53;151203.19;5122969;28;20048;-63
2023/04/28 05:58:52;;;;;;;16.55;10.90;;;;;;;15.52;69.04;151185.16;5111271;28;20023;-63
2023/04/28 06:01:18;;;;;;;14.60;9.98;;;;;;;15.58;69.31;151200.59;5112688;28;20027;-63
2023/04/28 06:03:44;;;;;;;13.00;10.10;;;;;;;15.62;68.81;151210.91;5120321;28;20027;-63
2023/04/28 06:06:10;;;;;;;15.70;9.95;;;;;;;15.77;68.59;151246.94;5104112;28;20020;-64
2023/04/28 06:08:37;;;;;;;15.30;10.07;;;;;;;15.82;69.21;151259.88;5123852;28;20042;-63
2023/04/28 06:11:02;;;;;;;13.68;9.90;;;;;;;16.02;67.90;151311.34;5091189;28;20245;-63
2023/04/28 06:13:28;;;;;;;14.25;9.75;;;;;;;16.30;67.11;151380.88;5113918;28;20035;-63
2023/04/28 06:15:54;;;;;;;12.60;9.18;;;;;;;16.43;67.36;151413.06;5106123;28;20047;-63
2023/04/28 06:18:19;;;;;;;14.75;9.15;;;;;;;16.72;65.93;151486.50;5123895;28;20031;-63
2023/04/28 06:20:45;;;;;;;14.38;8.95;;;;;;;16.84;66.48;151514.84;5103477;28;20336;-63
2023/04/28 06:23:11;;;;;;;15.98;8.95;;;;;;;16.81;65.67;151507.13;5103039;28;20086;-64
2023/04/28 06:25:37;;;;;;;16.40;8.63;;;;;;;16.68;66.15;151476.19;5114915;28;20073;-63
2023/04/28 06:28:03;;;;;;;11.00;9.50;;;;;;;16.50;67.41;151431.16;5117564;28;20028;-64
2023/04/28 06:30:28;;;;;;;14.85;8.80;;;;;;;16.59;66.48;151453.03;5104924;28;20035;-64
2023/04/28 06:32:56;;;;;;;13.10;7.88;;;;;;;16.59;66.10;151453.03;5119725;28;20098;-63
2023/04/28 06:35:22;;;;;;;8.70;7.40;;;;;;;16.63;65.82;151463.34;5104992;28;20063;-65
2023/04/28 06:37:48;;;;;;;10.45;7.35;;;;;;;16.76;66.36;151495.56;5111354;28;20073;-64
2023/04/28 06:40:13;;;;;;;11.13;7.55;;;;;;;16.73;66.71;151489.09;5103424;28;20304;-65
2023/04/28 06:42:39;;;;;;;10.98;6.82;;;;;;;16.89;66.12;151529.09;5106328;28;20062;-63
2023/04/28 06:45:05;;;;;;;6.93;5.90;;;;;;;16.73;66.15;151489.09;5102317;28;20091;-65
2023/04/28 06:47:31;;;;;;;11.30;6.30;;;;;;;16.55;66.46;151442.72;5122084;28;20043;-65
2023/04/28 06:49:56;;;;;;;7.63;5.93;;;;;;;16.44;66.95;151414.38;5123865;28;20330;-64
2023/04/28 06:52:22;;;;;;;10.98;6.25;;;;;;;16.61;66.67;151458.16;5114517;28;20069;-64
2023/04/28 06:54:49;;;;;;;8.60;5.55;;;;;;;16.58;66.40;151450.44;5109095;28;20103;-68
2023/04/28 06:57:15;;;;;;;9.18;6.47;;;;;;;16.72;66.07;151486.50;5123058;28;20035;-67
2023/04/28 06:59:42;;;;;;;8.00;6.20;;;;;;;16.76;66.74;151494.22;5123639;28;20023;-67
2023/04/28 07:02:09;;;;;;;9.38;6.15;;;;;;;16.43;67.31;151413.06;5107928;28;20039;-68
2023/04/28 07:04:35;;;;;;;7.28;5.55;;;;;;;16.54;67.24;151440.13;5113147;28;20060;-66
2023/04/28 07:07:01;;;;;;;8.25;5.38;;;;;;;16.43;67.77;151411.78;5122868;28;20129;-67
2023/04/28 07:09:27;;;;;;;5.93;5.07;;;;;;;16.23;69.71;151362.84;5123582;28;20019;-68
2023/04/28 07:11:52;;;;;;;10.63;5.47;;;;;;;15.95;71.12;151293.34;5123413;28;20028;-68
2023/04/28 07:14:18;;;;;;;10.80;6.60;;;;;;;15.58;74.16;151200.59;5123298;28;20123;-68
2023/04/28 07:16:44;;;;;;;6.78;6.15;;;;;;;15.75;74.56;151243.06;5111789;28;20034;-66
2023/04/28 07:19:09;;;;;;;6.90;6.22;;;;;;;15.83;74.77;151263.72;5091350;28;20212;-65
2023/04/28 07:21:35;;;;;;;15.20;7.18;;;;;;;15.77;75.47;151246.94;5120908;28;20023;-67
2023/04/28 07:24:01;;;;;;;7.43;6.63;;;;;;;15.86;75.89;151270.13;5102775;28;20027;-67
2023/04/28 07:26:27;;;;;;;12.20;7.55;;;;;;;15.91;77.04;151283.03;5120600;28;20028;-66
2023/04/28 07:28:52;;;;;;;9.73;7.82;;;;;;;15.97;76.30;151298.47;5105062;28;20024;-67
2023/04/28 07:31:18;;;;;;;9.77;7.70;;;;;;;16.04;75.63;151316.50;5104773;28;20801;-67
2023/04/28 07:33:43;;;;;;;11.05;7.72;;;;;;;15.93;74.83;151286.88;5122919;28;20027;-66
2023/04/28 07:36:09;;;;;;;9.63;7.38;;;;;;;16.01;74.23;151308.78;5104827;28;20024;-66
2023/04/28 07:38:35;;;;;;;12.20;7.30;;;;;;;16.09;74.20;151326.78;5103937;28;20049;-66
2023/04/28 07:41:02;;;;;;;9.52;7.18;;;;;;;15.86;75.00;151270.13;5102331;28;20028;-66
2023/04/28 07:43:28;;;;;;;10.30;7.95;;;;;;;15.93;74.98;151286.88;5111270;28;20090;-64
2023/04/28 07:45:54;;;;;;;12.25;8.02;;;;;;;15.84;75.41;151265.00;5122774;28;20035;-66
2023/04/28 07:48:20;;;;;;;9.75;7.93;;;;;;;15.71;76.92;151232.78;5122622;28;20055;-64
2023/04/28 07:50:45;;;;;;;9.20;7.55;;;;;;;15.80;76.69;151254.69;5122906;28;20054;-64
2023/04/28 07:53:11;;;;;;;8.70;7.57;;;;;;;15.93;76.17;151288.16;5107291;28;20056;-65
2023/04/28 07:55:37;;;;;;;8.25;7.38;;;;;;;15.67;76.12;151223.75;5112609;28;20108;-65
2023/04/28 07:58:03;;;;;;;7.50;6.80;;;;;;;15.82;76.26;151261.16;5117108;28;20054;-66
2023/04/28 08:00:28;;;;;;;9.10;6.93;;;;;;;15.74;75.70;151239.22;5103122;28;20028;-65
2023/04/28 08:02:55;;;;;;;7.75;6.95;;;;;;;15.99;75.58;151302.31;5122758;28;20058;-65
2023/04/28 08:05:21;;;;;;;8.32;7.38;;;;;;;15.90;75.75;151279.16;5107998;28;20043;-67
2023/04/28 08:07:46;;;;;;;9.38;7.38;;;;;;;15.81;75.73;151258.56;5116451;28;20042;-66
2023/04/28 08:10:12;;;;;;;8.00;7.25;;;;;;;16.12;75.25;151335.84;5122311;28;20031;-67
2023/04/28 08:12:39;;;;;;;11.25;7.35;;;;;;;16.20;73.88;151355.13;5122007;28;20096;-66
2023/04/28 08:15:05;;;;;;;9.60;7.25;;;;;;;16.35;73.84;151393.78;5122439;28;20246;-66
2023/04/28 08:17:31;;;;;;;10.40;7.90;;;;;;;16.39;73.70;151404.09;5122618;28;20243;-65
2023/04/28 08:19:57;;;;;;;7.90;7.10;;;;;;;15.92;74.16;151284.31;5122416;28;20023;-65
2023/04/28 08:22:23;;;;;;;8.70;7.80;;;;;;;16.27;73.97;151373.16;5114403;28;20073;-65
2023/04/28 08:24:48;;;;;;;9.63;7.60;;;;;;;16.41;73.95;151406.66;5107051;28;20027;-66
2023/04/28 08:27:15;;;;;;;9.10;8.18;;;;;;;16.35;73.61;151392.50;5122217;28;20024;-65
2023/04/28 08:29:41;;;;;;;9.90;8.13;;;;;;;15.93;75.40;151286.88;5111561;28;20036;-67
2023/04/28 08:32:06;;;;;;;11.40;8.32;;;;;;;15.78;76.66;151250.78;5118498;28;20023;-66
2023/04/28 08:34:32;;;;;;;8.68;7.88;;;;;;;16.05;75.51;151319.06;5122337;28;20045;-66
2023/04/28 08:36:58;;;;;;;8.18;7.18;;;;;;;15.89;75.34;151277.91;5117936;28;20082;-65
2023/04/28 08:39:25;;;;;;;8.27;7.38;;;;;;;15.98;75.17;151299.78;5102502;28;20055;-64
2023/04/28 08:41:51;;;;;;;7.70;7.00;;;;;;;15.80;75.74;151254.69;5102161;28;20023;-66
2023/04/28 08:44:17;;;;;;;8.27;6.45;;;;;;;15.85;75.28;151268.88;5102123;28;20028;-66
2023/04/28 08:46:44;;;;;;;8.35;6.30;;;;;;;15.74;75.28;151240.50;5122108;28;20059;-65
2023/04/28 08:49:17;;;;;;;8.48;6.57;;;;;;;15.87;75.13;151272.72;5116668;28;20328;-66
2023/04/28 08:51:58;;;;;;;8.48;6.75;;;;;;;15.93;75.59;151288.16;5108159;28;20035;-66
2023/04/28 08:54:29;;;;;;;9.38;7.03;;;;;;;15.97;74.64;151297.19;5125940;28;20020;-67
2023/04/28 08:56:55;;;;;;;7.68;6.88;;;;;;;16.09;73.87;151326.78;5126014;28;20043;-68
2023/04/28 08:59:21;;;;;;;8.95;6.35;;;;;;;16.16;73.34;151346.13;5125715;28;20163;-67
2023/04/28 09:01:50;;;;;;;6.65;6.00;;;;;;;16.20;74.00;151355.13;5125859;28;20040;-66
2023/04/28 09:04:17;;;;;;;9.60;6.95;;;;;;;16.22;73.33;151361.56;5119415;28;20201;-66
2023/04/28 09:06:44;;;;;;;8.85;6.70;;;;;;;16.16;73.85;151346.13;5115997;28;20038;-67
2023/04/28 09:09:25;;;;;;;8.57;7.35;;;;;;;16.02;75.28;151310.09;5125258;28;20027;-66
2023/04/28 09:12:02;;;;;;;10.50;7.72;;;;;;;16.04;75.49;151316.50;5125383;28;20201;-65
2023/04/28 09:14:29;;;;;;;10.80;7.28;;;;;;;15.99;76.17;151302.31;5125959;28;20091;-64
2023/04/28 09:16:56;;;;;;;8.60;7.70;;;;;;;15.95;76.79;151293.34;5112474;28;20316;-65
2023/04/28 09:19:22;;;;;;;8.23;7.32;;;;;;;16.10;77.03;151329.38;5093629;28;20216;-66
2023/04/28 09:21:53;;;;;;;10.07;7.82;;;;;;;16.18;77.47;151351.28;5123773;28;20023;-66
2023/04/28 09:24:29;;;;;;;11.95;8.00;;;;;;;16.19;78.08;151353.84;5122966;28;20096;-65
2023/04/28 09:26:55;;;;;;;10.40;8.85;;;;;;;16.14;78.55;151340.97;5124099;28;20024;-66
2023/04/28 09:29:20;;;;;;;10.23;7.95;;;;;;;16.29;79.17;151377.00;5120828;28;20088;-65
2023/04/28 09:31:46;;;;;;;9.88;8.70;;;;;;;16.16;78.25;151344.81;5123086;28;20016;-68
2023/04/28 09:34:12;;;;;;;10.18;8.38;;;;;;;16.22;78.49;151361.56;5109542;28;20024;-66
2023/04/28 09:36:37;;;;;;;11.93;8.95;;;;;;;16.12;78.53;151335.84;5104843;28;20060;-68
2023/04/28 09:39:03;;;;;;;10.93;9.23;;;;;;;16.01;79.80;151308.78;5104593;28;20020;-66
2023/04/28 09:41:40;;;;;;;9.25;8.23;;;;;;;16.03;79.78;151313.94;5121231;28;20560;-65
2023/04/28 09:44:17;;;;;;;11.20;10.20;;;;;;;15.93;80.75;151286.88;5103149;28;20031;-66
2023/04/28 09:46:44;;;;;;;10.57;9.48;;;;;;;16.05;80.07;151317.81;5124529;28;20047;-64
2023/04/28 09:49:11;;;;;;;12.55;10.20;;;;;;;16.05;80.13;151319.06;5122181;28;20066;-64
2023/04/28 09:51:36;;;;;;;10.70;9.73;;;;;;;16.02;79.63;151311.34;5108788;28;20287;-64
2023/04/28 09:54:03;;;;;;;11.98;10.77;;;;;;;16.10;79.76;151329.38;5104180;28;20031;-65
2023/04/28 09:56:30;;;;;;;12.25;10.77;;;;;;;16.10;79.40;151330.66;5121005;28;20053;-64
2023/04/28 09:58:59;;;;;;;13.07;10.50;;;;;;;16.01;79.01;151308.78;5113125;28;20136;-64
2023/04/28 10:01:29;;;;;;;13.07;10.65;;;;;;;16.01;80.10;151307.50;5111252;28;20086;-65
2023/04/28 10:03:56;;;;;;;12.98;11.48;;;;;;;16.05;79.74;151317.81;5121623;28;20028;-66
2023/04/28 10:06:24;;;;;;;11.93;10.73;;;;;;;16.17;79.54;151347.41;5104032;28;20317;-65
2023/04/28 10:08:50;;;;;;;11.10;10.05;;;;;;;16.12;79.23;151334.50;5104938;28;20069;-65
2023/04/28 10:11:16;;;;;;;12.13;10.90;;;;;;;16.01;79.13;151308.78;5109415;28;20339;-66
2023/04/28 10:13:45;;;;;;;13.05;11.60;;;;;;;16.12;79.25;151335.84;5114174;28;20032;-64
2023/04/28 10:16:13;;;;;;;14.25;11.68;;;;;;;16.10;79.14;151330.66;5124405;28;20050;-66
2023/04/28 10:18:39;;;;;;;13.70;11.15;;;;;;;16.22;79.04;151361.56;5123620;28;20030;-66
2023/04/28 10:21:06;;;;;;;10.80;9.70;;;;;;;16.25;78.98;151368.03;5103608;28;20020;-65
2023/04/28 10:23:35;;;;;;;11.45;10.23;;;;;;;16.30;79.52;151380.88;5120757;28;20031;-65
2023/04/28 10:26:02;;;;;;;13.30;11.63;;;;;;;16.02;79.30;151310.09;5111931;28;20031;-66
2023/04/28 10:28:28;;;;;;;11.32;10.20;;;;;;;16.25;78.23;151368.03;5111411;28;20308;-65
2023/04/28 10:31:13;;;;;;;10.77;9.68;;;;;;;16.25;78.58;151368.03;5123904;28;20051;-65
2023/04/28 10:33:39;;;;;;;11.98;10.77;;;;;;;16.29;78.24;151378.34;5114246;28;20095;-68
2023/04/28 10:36:06;;;;;;;11.68;10.45;;;;;;;16.46;78.48;151419.53;5124030;28;20027;-66
2023/04/28 10:38:32;;;;;;;11.23;10.13;;;;;;;16.42;77.75;151410.53;5107331;28;20040;-65
2023/04/28 10:41:04;;;;;;;11.02;9.85;;;;;;;16.48;77.70;151424.69;5115257;28;20197;-65
2023/04/28 10:43:30;;;;;;;11.43;10.23;;;;;;;16.41;76.06;151407.94;5116144;28;20476;-65
2023/04/28 10:45:58;;;;;;;10.40;9.40;;;;;;;16.30;76.34;151379.59;5116909;28;20054;-66
2023/04/28 10:48:32;;;;;;;10.32;9.43;;;;;;;16.45;75.81;151416.97;5123849;28;20058;-66
2023/04/28 10:51:08;;;;;;;10.40;9.38;;;;;;;16.43;75.90;151411.78;5103651;28;20208;-67
2023/04/28 10:53:43;;;;;;;11.57;10.52;;;;;;;16.42;76.69;151409.22;5103057;28;20035;-65
2023/04/28 10:56:20;;;;;;;11.23;9.70;;;;;;;16.56;75.24;151446.59;5098046;28;20044;-65
2023/04/28 10:58:56;;;;;;;10.82;9.88;;;;;;;16.74;74.69;151491.69;5113750;28;20067;-67
2023/04/28 11:01:23;;;;;;;11.57;10.38;;;;;;;16.80;74.68;151504.53;5091208;28;20143;-66
2023/04/28 11:03:59;;;;;;;10.45;9.40;;;;;;;16.98;74.31;151549.72;5123517;28;20023;-66
2023/04/28 11:06:46;;;;;;;11.10;9.88;;;;;;;17.18;74.77;151599.97;5123579;28;20066;-67
2023/04/28 11:09:14;;;;;;;11.75;10.02;;;;;;;17.05;73.57;151569.00;5101868;28;20096;-66
2023/04/28 11:11:58;;;;;;;11.73;10.05;;;;;;;17.10;72.60;151580.59;5119958;28;20023;-67